createdAt,value
2023-04-28T00:04:34.152Z,12.31
2023-04-28T00:09:25.900Z,12.29
2023-04-28T00:14:17.795Z,12.31
2023-04-28T00:19:09.704Z,12.30
2023-04-28T00:24:01.399Z,12.21
2023-04-28T00:28:53.074Z,12.15
2023-04-28T00:33:44.834Z,12.12
2023-04-28T00:38:36.765Z,12.10
2023-04-28T00:43:28.984Z,12.11
2023-04-28T00:48:22.514Z,12.08
2023-04-28T00:53:14.710Z,12.06
2023-04-28T00:58:08.062Z,12.05
2023-04-28T01:03:00.113Z,12.03
2023-04-28T01:07:52.366Z,12.03
2023-04-28T01:12:44.052Z,12.05
2023-04-28T01:17:35.824Z,12.05
2023-04-28T01:22:27.528Z,12.17
2023-04-28T01:27:19.203Z,12.15
2023-04-28T01:32:11.047Z,12.15
2023-04-28T01:37:02.744Z,12.14
2023-04-28T01:41:54.442Z,12.11
2023-04-28T01:46:46.170Z,12.14
2023-04-28T01:51:37.904Z,12.14
2023-04-28T01:56:29.590Z,12.15
2023-04-28T02:01:21.286Z,12.11
2023-04-28T02:06:13.073Z,12.14
2023-04-28T02:11:04.852Z,12.18
2023-04-28T02:15:56.618Z,12.05
2023-04-28T02:20:48.323Z,12.11
2023-04-28T02:25:40.024Z,12.09
2023-04-28T02:30:31.732Z,12.06
2023-04-28T02:35:23.397Z,12.00
2023-04-28T02:40:15.135Z,12.06
2023-04-28T02:45:08.107Z,11.96
2023-04-28T02:49:59.798Z,11.78
2023-04-28T02:54:54.430Z,11.78
2023-04-28T02:59:46.153Z,11.66
2023-04-28T03:04:37.854Z,11.63
2023-04-28T03:09:29.530Z,11.79
2023-04-28T03:14:21.207Z,11.65
2023-04-28T03:19:12.910Z,11.59
2023-04-28T03:24:05.807Z,11.55
2023-04-28T03:28:57.722Z,11.55
2023-04-28T03:33:49.384Z,11.58
2023-04-28T03:38:41.735Z,11.84
2023-04-28T03:43:35.677Z,11.62
2023-04-28T03:48:27.602Z,11.41
2023-04-28T03:53:19.331Z,11.38
2023-04-28T03:58:11.105Z,11.34
2023-04-28T04:08:12.421Z,11.34
2023-04-28T04:13:04.172Z,11.22
2023-04-28T04:18:01.979Z,11.21
2023-04-28T04:22:54.160Z,11.17
2023-04-28T04:27:45.950Z,11.21
2023-04-28T04:32:37.713Z,11.17
2023-04-28T04:37:30.016Z,11.10
2023-04-28T04:42:30.047Z,11.10
2023-04-28T04:47:23.033Z,11.07
2023-04-28T04:52:20.840Z,11.20
2023-04-28T05:02:20.349Z,11.03
2023-04-28T05:12:44.082Z,10.92
2023-04-28T05:17:53.234Z,10.86
2023-04-28T05:27:52.616Z,11.05
2023-04-28T05:32:44.798Z,11.16
2023-04-28T05:37:39.174Z,11.26
2023-04-28T05:43:01.831Z,11.19
2023-04-28T05:47:57.576Z,11.28
2023-04-28T05:52:54.136Z,11.33
2023-04-28T05:57:54.154Z,11.41
2023-04-28T06:02:49.248Z,11.68
2023-04-28T06:12:48.193Z,11.99
2023-04-28T06:22:48.620Z,11.95
2023-04-28T06:27:41.385Z,11.94
2023-04-28T06:37:51.796Z,12.13
2023-04-28T06:42:44.688Z,12.28
2023-04-28T06:47:38.309Z,12.44
2023-04-28T06:52:41.190Z,12.59
2023-04-28T06:57:34.136Z,12.54
2023-04-28T07:02:30.905Z,12.64
2023-04-28T07:07:23.895Z,12.68
2023-04-28T07:27:38.219Z,12.94
2023-04-28T07:32:37.920Z,13.01
2023-04-28T07:37:37.957Z,13.09
2023-04-28T07:47:40.736Z,13.20
2023-04-28T07:52:39.309Z,13.19
2023-04-28T07:57:31.541Z,13.11
2023-04-28T08:02:33.878Z,13.02
2023-04-28T08:07:28.595Z,13.01
2023-04-28T08:12:21.322Z,12.94
2023-04-28T08:17:16.877Z,12.93
2023-04-28T08:22:10.269Z,13.08
2023-04-28T08:27:03.770Z,13.07
2023-04-28T08:31:57.805Z,13.13
2023-04-28T08:37:00.166Z,13.16
2023-04-28T08:47:16.394Z,13.50
2023-04-28T08:52:22.944Z,13.56
2023-04-28T09:02:22.452Z,13.78
2023-04-28T09:07:15.310Z,14.11
2023-04-28T09:12:08.216Z,14.39
2023-04-28T09:22:24.737Z,14.54
2023-04-28T09:27:29.504Z,14.72
2023-04-28T09:32:28.784Z,14.68
2023-04-28T09:37:25.373Z,14.53
2023-04-28T09:47:46.604Z,14.37
2023-04-28T09:57:58.489Z,14.12
2023-04-28T10:13:26.716Z,13.96
2023-04-28T10:23:52.430Z,13.96
2023-04-28T10:39:37.513Z,14.46
2023-04-28T10:50:02.350Z,15.25
2023-04-28T11:12:00.854Z,15.64
2023-04-28T11:22:28.105Z,15.31
2023-04-28T11:37:44.738Z,15.13
2023-04-28T11:42:37.610Z,15.19
2023-04-28T11:53:01.412Z,15.11
2023-04-28T12:03:35.920Z,15.29
2023-04-28T12:08:31.148Z,15.69
2023-04-28T12:18:33.968Z,16.58
2023-04-28T12:28:42.977Z,16.84
2023-04-28T12:38:56.692Z,17.86
2023-04-28T12:54:00.173Z,18.65
2023-04-28T12:58:51.900Z,18.72
2023-04-28T13:03:44.418Z,18.71
2023-04-28T13:08:37.148Z,18.62
2023-04-28T13:18:38.085Z,18.53
2023-04-28T13:33:43.155Z,18.51
2023-04-28T13:38:35.552Z,18.57
2023-04-28T13:43:27.387Z,18.80
2023-04-28T13:48:31.295Z,18.97
2023-04-28T13:53:25.041Z,19.16
2023-04-28T13:58:17.324Z,18.99
2023-04-28T14:03:09.759Z,19.33
2023-04-28T14:13:12.614Z,20.07
2023-04-28T14:18:04.608Z,20.27
2023-04-28T14:22:57.053Z,19.95
2023-04-28T14:33:03.907Z,18.96
2023-04-28T14:48:16.495Z,18.42
2023-04-28T14:53:16.705Z,18.65
2023-04-28T14:58:09.888Z,18.67
2023-04-28T15:08:33.574Z,18.75
2023-04-28T15:18:40.014Z,19.14
2023-04-28T15:28:43.299Z,18.58
2023-04-28T15:43:51.042Z,17.44
2023-04-28T15:54:05.342Z,17.41
2023-04-28T16:04:11.748Z,18.26
2023-04-28T16:14:11.095Z,18.63
2023-04-28T16:34:41.666Z,18.26
2023-04-28T16:39:34.479Z,18.14
2023-04-28T17:20:43.373Z,17.90
2023-04-28T17:25:42.497Z,17.62
2023-04-28T17:30:40.731Z,17.51
2023-04-28T17:35:36.098Z,17.40
2023-04-28T17:40:27.896Z,17.39
2023-04-28T17:45:19.573Z,17.24
2023-04-28T18:00:30.156Z,16.99
2023-04-28T18:05:33.805Z,16.96
2023-04-28T18:10:32.095Z,16.80
2023-04-28T18:15:24.974Z,16.67
2023-04-28T18:20:18.916Z,16.61
2023-04-28T18:25:11.443Z,16.54
2023-04-28T18:30:04.151Z,16.47
2023-04-28T18:34:58.174Z,16.38
2023-04-28T18:39:56.868Z,16.31
2023-04-28T18:44:54.165Z,16.29
2023-04-28T19:00:01.323Z,16.07
2023-04-28T19:04:54.069Z,15.92
2023-04-28T19:09:46.002Z,15.78
2023-04-28T19:14:38.419Z,15.66
2023-04-28T19:24:40.714Z,15.49
2023-04-28T19:45:09.062Z,15.30
2023-04-28T19:50:03.586Z,15.19
2023-04-28T19:55:10.298Z,15.09
2023-04-28T20:00:02.632Z,15.01
2023-04-28T20:05:01.036Z,14.96
2023-04-28T20:09:56.838Z,14.83
2023-04-28T20:14:52.992Z,14.78
2023-04-28T20:19:44.846Z,14.61
2023-04-28T20:24:37.899Z,14.61
2023-04-28T20:29:36.170Z,14.56
2023-04-28T20:39:37.037Z,14.40
2023-04-28T20:44:28.796Z,14.24
2023-04-28T20:49:20.914Z,14.13
2023-04-28T21:09:34.317Z,14.11
2023-04-28T21:19:33.930Z,14.14
2023-04-28T21:24:27.585Z,14.12
2023-04-28T21:29:19.805Z,13.98
2023-04-28T21:34:11.475Z,13.76
2023-04-28T21:49:19.300Z,13.62
2023-04-28T21:54:13.589Z,13.72
2023-04-28T21:59:13.635Z,13.76
2023-04-28T22:04:09.232Z,13.76
2023-04-28T22:09:05.849Z,13.68
2023-04-28T22:14:00.270Z,13.68
2023-04-28T22:24:09.333Z,13.79
2023-04-28T22:29:05.808Z,13.77
2023-04-28T22:33:57.514Z,13.76
2023-04-28T22:38:49.574Z,13.79
2023-04-28T22:43:41.297Z,13.87
2023-04-28T22:53:41.990Z,13.72
2023-04-28T23:03:43.739Z,13.77
2023-04-28T23:08:35.965Z,13.80
2023-04-28T23:18:36.063Z,13.90
2023-04-28T23:23:28.288Z,13.77
2023-04-28T23:28:24.761Z,13.77
2023-04-28T23:54:12.582Z,13.98
2023-04-28T23:59:05.570Z,14.03
